createdAt,value
2023-01-28T00:00:36.348Z,68.80
2023-01-28T00:01:36.360Z,68.80
2023-01-28T00:02:36.376Z,67.35
2023-01-28T00:03:37.309Z,69.77
2023-01-28T00:04:36.314Z,69.61
2023-01-28T00:05:36.258Z,70.74
2023-01-28T00:06:36.270Z,60.59
2023-01-28T00:07:36.239Z,68.96
2023-01-28T00:08:36.198Z,69.93
2023-01-28T00:09:36.181Z,71.22
2023-01-28T00:10:36.165Z,69.77
2023-01-28T00:11:36.188Z,69.13
2023-01-28T00:12:36.124Z,68.96
2023-01-28T00:13:36.102Z,68.00
2023-01-28T00:14:36.093Z,66.23
2023-01-28T00:15:36.063Z,69.45
2023-01-28T00:16:36.081Z,66.87
2023-01-28T00:17:36.029Z,67.84
2023-01-28T00:18:36.006Z,72.67
2023-01-28T00:19:35.995Z,68.32
2023-01-28T00:20:35.971Z,70.74
2023-01-28T00:21:35.979Z,70.74
2023-01-28T00:22:35.933Z,68.00
2023-01-28T00:23:35.943Z,69.93
2023-01-28T00:24:35.900Z,71.06
2023-01-28T00:25:35.882Z,69.45
2023-01-28T00:26:35.889Z,69.29
2023-01-28T00:27:35.848Z,68.16
2023-01-28T00:28:35.823Z,67.19
2023-01-28T00:29:35.837Z,70.74
2023-01-28T00:30:35.798Z,64.45
2023-01-28T00:31:35.811Z,66.71
2023-01-28T00:32:35.749Z,65.42
2023-01-28T00:33:35.730Z,67.35
2023-01-28T00:34:35.714Z,67.19
2023-01-28T00:35:35.693Z,66.23
2023-01-28T00:36:35.702Z,67.84
2023-01-28T00:37:35.668Z,69.13
2023-01-28T00:38:35.636Z,64.94
2023-01-28T00:39:35.619Z,65.26
2023-01-28T00:40:35.601Z,59.62
2023-01-28T00:41:35.607Z,71.70
2023-01-28T00:42:35.559Z,64.45
2023-01-28T00:43:35.547Z,69.45
2023-01-28T00:44:35.529Z,65.90
2023-01-28T00:45:35.515Z,71.22
2023-01-28T00:46:35.516Z,68.32
2023-01-28T00:47:35.468Z,66.23
2023-01-28T00:48:35.481Z,67.84
2023-01-28T00:49:35.431Z,65.10
2023-01-28T00:50:35.414Z,62.52
2023-01-28T00:51:35.424Z,65.90
2023-01-28T00:52:35.374Z,70.09
2023-01-28T00:53:35.358Z,73.48
2023-01-28T00:54:35.332Z,64.94
2023-01-28T00:55:35.311Z,67.03
2023-01-28T00:56:35.322Z,66.06
2023-01-28T00:57:35.275Z,68.16
2023-01-28T00:58:35.261Z,72.19
2023-01-28T00:59:35.243Z,68.48
2023-01-28T01:00:35.225Z,62.04
2023-01-28T01:01:35.284Z,68.00
2023-01-28T01:02:35.304Z,73.15
2023-01-28T01:03:35.173Z,66.39
2023-01-28T01:04:35.153Z,71.06
2023-01-28T01:05:35.136Z,67.35
2023-01-28T01:06:35.141Z,62.52
2023-01-28T01:07:35.096Z,64.13
2023-01-28T01:08:35.069Z,66.23
2023-01-28T01:09:35.054Z,67.35
2023-01-28T01:10:35.035Z,67.68
2023-01-28T01:11:35.041Z,68.16
2023-01-28T01:12:34.998Z,67.03
2023-01-28T01:13:34.996Z,62.84
2023-01-28T01:14:34.958Z,71.87
2023-01-28T01:15:34.963Z,71.06
2023-01-28T01:16:34.950Z,68.00
2023-01-28T01:17:34.906Z,70.90
2023-01-28T01:18:34.890Z,68.00
2023-01-28T01:19:34.900Z,66.87
2023-01-28T01:20:34.851Z,70.58
2023-01-28T01:21:34.859Z,68.00
2023-01-28T01:22:34.818Z,63.33
2023-01-28T01:23:34.793Z,65.58
2023-01-28T01:24:34.776Z,67.35
2023-01-28T01:25:34.760Z,68.80
2023-01-28T01:26:34.774Z,62.20
2023-01-28T01:27:34.730Z,61.87
2023-01-28T01:28:34.707Z,68.80
2023-01-28T01:29:34.692Z,68.32
2023-01-28T01:30:34.726Z,70.42
2023-01-28T01:31:34.698Z,71.22
2023-01-28T01:32:34.631Z,63.33
2023-01-28T01:33:34.620Z,61.55
2023-01-28T01:34:34.589Z,70.25
2023-01-28T01:35:34.575Z,71.22
2023-01-28T01:36:34.584Z,70.09
2023-01-28T01:37:34.535Z,69.13
2023-01-28T01:38:34.517Z,62.52
2023-01-28T01:39:34.502Z,63.81
2023-01-28T01:40:34.481Z,67.03
2023-01-28T01:41:34.502Z,68.80
2023-01-28T01:42:34.437Z,67.51
2023-01-28T01:43:34.426Z,69.13
2023-01-28T01:44:34.406Z,66.87
2023-01-28T01:45:34.390Z,65.90
2023-01-28T01:46:34.396Z,59.94
2023-01-28T01:47:34.353Z,72.03
2023-01-28T01:48:34.335Z,72.99
2023-01-28T01:49:34.313Z,65.10
2023-01-28T01:50:34.295Z,67.84
2023-01-28T01:51:34.307Z,73.15
2023-01-28T01:52:34.256Z,72.19
2023-01-28T01:53:34.235Z,72.99
2023-01-28T01:54:34.219Z,68.16
2023-01-28T01:55:35.413Z,69.13
2023-01-28T01:56:34.204Z,71.38
2023-01-28T01:57:34.157Z,71.70
2023-01-28T01:58:34.152Z,69.13
2023-01-28T01:59:34.128Z,69.77
2023-01-28T02:00:34.095Z,69.13
2023-01-28T02:01:34.110Z,64.94
2023-01-28T02:02:34.076Z,63.97
2023-01-28T02:03:34.142Z,68.96
2023-01-28T02:04:34.023Z,66.39
2023-01-28T02:05:34.002Z,70.58
2023-01-28T02:06:34.007Z,69.29
2023-01-28T02:07:34.003Z,71.38
2023-01-28T02:08:33.952Z,64.13
2023-01-28T02:09:33.932Z,62.52
2023-01-28T02:10:33.907Z,69.77
2023-01-28T02:11:33.913Z,67.51
2023-01-28T02:12:33.867Z,66.87
2023-01-28T02:13:33.846Z,68.00
2023-01-28T02:14:33.840Z,69.77
2023-01-28T02:15:33.808Z,66.55
2023-01-28T02:16:33.836Z,66.87
2023-01-28T02:17:33.770Z,66.06
2023-01-28T02:18:33.755Z,65.90
2023-01-28T02:19:33.729Z,70.90
2023-01-28T02:20:33.712Z,68.48
2023-01-28T02:21:33.724Z,71.22
2023-01-28T02:22:33.670Z,66.39
2023-01-28T02:23:33.653Z,63.16
2023-01-28T02:24:33.632Z,70.09
2023-01-28T02:25:33.614Z,66.39
2023-01-28T02:26:33.628Z,65.58
2023-01-28T02:27:33.578Z,65.74
2023-01-28T02:28:33.586Z,61.07
2023-01-28T02:29:33.542Z,60.59
2023-01-28T02:30:33.585Z,67.19
2023-01-28T02:31:33.602Z,65.26
2023-01-28T02:32:33.480Z,64.61
2023-01-28T02:33:33.461Z,71.54
2023-01-28T02:34:33.443Z,68.48
2023-01-28T02:35:33.441Z,63.33
2023-01-28T02:36:33.439Z,62.36
2023-01-28T02:37:33.383Z,63.00
2023-01-28T02:38:33.381Z,66.23
2023-01-28T02:39:33.342Z,71.87
2023-01-28T02:40:33.346Z,60.59
2023-01-28T02:41:33.327Z,58.97
2023-01-28T02:42:33.285Z,59.46
2023-01-28T02:43:33.267Z,65.58
2023-01-28T02:44:33.246Z,69.77
2023-01-28T02:45:33.222Z,66.55
2023-01-28T02:46:33.287Z,58.65
2023-01-28T02:47:33.183Z,68.00
2023-01-28T02:48:33.159Z,68.48
2023-01-28T02:49:33.145Z,66.23
2023-01-28T02:50:33.133Z,67.68
2023-01-28T02:51:33.134Z,68.16
2023-01-28T02:52:33.086Z,63.65
2023-01-28T02:53:33.067Z,69.29
2023-01-28T02:54:33.049Z,69.13
2023-01-28T02:55:33.036Z,70.74
2023-01-28T02:56:33.040Z,67.84
2023-01-28T02:57:33.019Z,65.26
2023-01-28T02:58:32.986Z,71.70
2023-01-28T02:59:32.958Z,60.91
2023-01-28T03:00:32.938Z,60.91
2023-01-28T03:01:32.978Z,67.03
2023-01-28T03:02:32.966Z,60.91
2023-01-28T03:03:32.879Z,68.16
2023-01-28T03:04:32.861Z,68.96
2023-01-28T03:05:32.853Z,64.13
2023-01-28T03:06:32.836Z,69.45
2023-01-28T03:07:32.835Z,66.55
2023-01-28T03:08:32.785Z,65.42
2023-01-28T03:09:32.770Z,69.13
2023-01-28T03:10:32.747Z,63.65
2023-01-28T03:11:32.725Z,63.65
2023-01-28T03:12:32.737Z,68.80
2023-01-28T03:13:32.688Z,69.45
2023-01-28T03:14:32.668Z,67.19
2023-01-28T03:15:32.651Z,66.06
2023-01-28T03:16:32.629Z,62.36
2023-01-28T03:17:32.640Z,63.81
2023-01-28T03:18:32.594Z,63.81
2023-01-28T03:19:32.582Z,68.00
2023-01-28T03:20:32.565Z,69.45
2023-01-28T03:21:32.547Z,70.09
2023-01-28T03:22:32.552Z,63.81
2023-01-28T03:23:32.503Z,60.91
2023-01-28T03:24:32.483Z,66.06
2023-01-28T03:25:32.467Z,67.51
2023-01-28T03:26:32.449Z,67.19
2023-01-28T03:27:32.456Z,68.80
2023-01-28T03:28:32.407Z,65.58
2023-01-28T03:29:32.400Z,65.10
2023-01-28T03:30:32.474Z,65.58
2023-01-28T03:31:32.355Z,67.68
2023-01-28T03:32:32.360Z,68.16
2023-01-28T03:33:32.324Z,66.23
2023-01-28T03:34:32.320Z,63.49
2023-01-28T03:35:32.298Z,65.58
2023-01-28T03:36:32.263Z,64.78
2023-01-28T03:37:32.265Z,66.23
2023-01-28T03:38:32.221Z,63.81
2023-01-28T03:39:32.205Z,67.68
2023-01-28T03:40:32.180Z,68.32
2023-01-28T03:41:32.168Z,69.77
2023-01-28T03:42:32.175Z,62.04
2023-01-28T03:43:32.124Z,60.42
2023-01-28T03:44:32.107Z,59.30
2023-01-28T03:45:32.096Z,60.59
2023-01-28T03:46:32.094Z,62.36
2023-01-28T03:47:32.100Z,65.42
2023-01-28T03:48:32.033Z,67.51
2023-01-28T03:49:32.014Z,66.87
2023-01-28T03:50:31.987Z,66.39
2023-01-28T03:51:31.974Z,66.87
2023-01-28T03:52:32.001Z,70.90
2023-01-28T03:53:31.937Z,64.61
2023-01-28T03:54:31.911Z,66.06
2023-01-28T03:55:31.897Z,68.96
2023-01-28T03:56:31.873Z,54.62
2023-01-28T03:57:31.880Z,66.71
2023-01-28T03:58:31.837Z,58.33
2023-01-28T03:59:31.820Z,65.10
2023-01-28T04:00:31.797Z,63.16
2023-01-28T04:01:31.804Z,60.59
2023-01-28T04:02:31.819Z,67.84
2023-01-28T04:03:31.743Z,64.13
2023-01-28T04:04:31.727Z,65.74
2023-01-28T04:05:31.707Z,64.61
2023-01-28T04:06:31.690Z,68.16
2023-01-28T04:07:31.688Z,68.80
2023-01-28T04:08:31.648Z,63.33
2023-01-28T04:09:31.622Z,67.19
2023-01-28T04:10:31.603Z,65.42
2023-01-28T04:11:31.588Z,61.71
2023-01-28T04:12:31.593Z,69.13
2023-01-28T04:13:31.576Z,67.51
2023-01-28T04:14:31.538Z,66.87
2023-01-28T04:15:31.507Z,68.16
2023-01-28T04:16:31.514Z,68.80
2023-01-28T04:17:31.471Z,63.65
2023-01-28T04:18:31.471Z,66.39
2023-01-28T04:19:31.423Z,64.78
2023-01-28T04:20:31.446Z,68.32
2023-01-28T04:21:31.393Z,70.25
2023-01-28T04:22:31.390Z,69.29
2023-01-28T04:23:31.355Z,69.13
2023-01-28T04:24:31.400Z,66.87
2023-01-28T04:25:31.309Z,71.22
2023-01-28T04:26:31.290Z,69.93
2023-01-28T04:27:31.300Z,71.22
2023-01-28T04:28:31.281Z,68.80
2023-01-28T04:29:31.256Z,67.35
2023-01-28T04:30:31.247Z,67.35
2023-01-28T04:31:31.225Z,69.29
2023-01-28T04:32:31.215Z,70.09
2023-01-28T04:33:31.188Z,70.42
2023-01-28T04:34:31.138Z,69.45
2023-01-28T04:35:31.118Z,69.61
2023-01-28T04:36:31.099Z,66.06
2023-01-28T04:37:31.084Z,69.13
2023-01-28T04:38:31.099Z,73.32
2023-01-28T04:39:31.046Z,67.19
2023-01-28T04:40:31.030Z,69.29
2023-01-28T04:41:31.009Z,70.09
2023-01-28T04:42:30.992Z,69.13
2023-01-28T04:43:30.969Z,70.58
2023-01-28T04:44:30.975Z,67.35
2023-01-28T04:45:30.931Z,63.81
2023-01-28T04:46:30.958Z,64.61
2023-01-28T04:47:30.922Z,63.97
2023-01-28T04:48:30.873Z,66.06
2023-01-28T04:49:30.859Z,67.51
2023-01-28T04:50:30.834Z,68.32
2023-01-28T04:51:30.825Z,67.35
2023-01-28T04:52:30.841Z,65.74
2023-01-28T04:53:30.786Z,70.90
2023-01-28T04:54:30.760Z,70.74
2023-01-28T04:55:30.755Z,67.84
2023-01-28T04:56:30.729Z,69.77
2023-01-28T04:57:30.739Z,69.61
2023-01-28T04:58:30.684Z,70.09
2023-01-28T04:59:30.697Z,69.77
2023-01-28T05:00:30.657Z,70.74
2023-01-28T05:01:30.637Z,67.68
2023-01-28T05:02:30.617Z,72.51
2023-01-28T05:03:30.596Z,67.35
2023-01-28T05:04:30.598Z,68.32
2023-01-28T05:05:30.550Z,66.06
2023-01-28T05:06:30.536Z,68.16
2023-01-28T05:07:30.542Z,66.23
2023-01-28T05:08:30.503Z,64.61
2023-01-28T05:09:30.479Z,65.90
2023-01-28T05:10:30.458Z,71.06
2023-01-28T05:11:30.446Z,71.70
2023-01-28T05:12:30.462Z,72.67
2023-01-28T05:13:30.399Z,70.25
2023-01-28T05:14:30.385Z,66.71
2023-01-28T05:15:30.365Z,69.13
2023-01-28T05:16:30.348Z,68.64
2023-01-28T05:17:30.434Z,68.00
2023-01-28T05:18:30.310Z,72.19
2023-01-28T05:19:30.315Z,68.48
2023-01-28T05:20:30.284Z,70.58
2023-01-28T05:21:30.254Z,69.13
2023-01-28T05:22:30.258Z,66.06
2023-01-28T05:23:30.210Z,68.00
2023-01-28T05:24:30.317Z,71.06
2023-01-28T05:25:30.179Z,66.71
2023-01-28T05:26:30.155Z,68.64
2023-01-28T05:27:30.164Z,69.61
2023-01-28T05:28:30.125Z,74.28
2023-01-28T05:29:30.103Z,70.09
2023-01-28T05:30:30.104Z,74.12
2023-01-28T05:31:30.070Z,69.93
2023-01-28T05:32:30.073Z,65.58
2023-01-28T05:33:30.033Z,74.28
2023-01-28T05:34:30.029Z,72.03
2023-01-28T05:35:29.984Z,70.90
2023-01-28T05:36:29.978Z,70.42
2023-01-28T05:37:29.985Z,69.61
2023-01-28T05:38:29.930Z,66.55
2023-01-28T05:39:29.918Z,68.64
2023-01-28T05:40:29.896Z,72.67
2023-01-28T05:41:29.870Z,70.09
2023-01-28T05:42:29.891Z,72.99
2023-01-28T05:43:29.847Z,72.67
2023-01-28T05:44:30.843Z,71.38
2023-01-28T05:45:29.814Z,74.77
2023-01-28T05:46:29.778Z,73.48
2023-01-28T05:47:29.851Z,70.58
2023-01-28T05:48:30.753Z,68.00
2023-01-28T05:49:29.724Z,71.54
2023-01-28T05:50:29.704Z,74.28
2023-01-28T05:51:29.707Z,71.54
2023-01-28T05:52:29.672Z,70.74
2023-01-28T05:53:29.676Z,73.80
2023-01-28T05:54:29.654Z,71.54
2023-01-28T05:55:29.625Z,66.71
2023-01-28T05:56:29.596Z,72.03
2023-01-28T05:57:29.574Z,71.70
2023-01-28T05:58:29.577Z,70.74
2023-01-28T05:59:29.529Z,74.93
2023-01-28T06:00:29.538Z,70.42
2023-01-28T06:01:29.506Z,72.35
2023-01-28T06:02:29.527Z,73.96
2023-01-28T06:03:29.485Z,72.03
2023-01-28T06:04:29.443Z,74.44
2023-01-28T06:05:29.514Z,71.22
2023-01-28T06:06:29.407Z,73.15
2023-01-28T06:07:29.382Z,74.28
2023-01-28T06:08:29.391Z,68.96
2023-01-28T06:09:29.342Z,72.67
2023-01-28T06:10:29.326Z,68.48
2023-01-28T06:11:29.302Z,63.65
2023-01-28T06:12:29.283Z,74.12
2023-01-28T06:13:29.292Z,71.54
2023-01-28T06:14:29.242Z,71.54
2023-01-28T06:15:29.321Z,68.80
2023-01-28T06:16:29.212Z,68.48
2023-01-28T06:17:29.182Z,70.58
2023-01-28T06:18:29.192Z,72.19
2023-01-28T06:19:29.161Z,73.96
2023-01-28T06:20:29.125Z,74.77
2023-01-28T06:21:30.353Z,71.54
2023-01-28T06:22:30.088Z,75.25
2023-01-28T06:23:29.092Z,74.28
2023-01-28T06:24:29.088Z,73.32
2023-01-28T06:25:29.037Z,71.22
2023-01-28T06:26:29.014Z,71.70
2023-01-28T06:27:28.997Z,71.70
2023-01-28T06:28:29.008Z,75.09
2023-01-28T06:29:28.966Z,68.96
2023-01-28T06:30:28.952Z,73.48
2023-01-28T06:31:28.925Z,71.54
2023-01-28T06:32:28.942Z,76.38
2023-01-28T06:33:28.912Z,72.19
2023-01-28T06:34:28.873Z,73.64
2023-01-28T06:35:28.856Z,72.67
2023-01-28T06:36:28.836Z,70.25
2023-01-28T06:37:28.874Z,76.86
2023-01-28T06:38:28.829Z,68.64
2023-01-28T06:39:28.781Z,72.03
2023-01-28T06:40:28.769Z,72.67
2023-01-28T06:41:28.743Z,73.32
2023-01-28T06:42:28.727Z,73.80
2023-01-28T06:43:28.743Z,75.57
2023-01-28T06:44:28.686Z,74.77
2023-01-28T06:45:28.672Z,75.25
2023-01-28T06:46:28.658Z,70.90
2023-01-28T06:47:28.637Z,68.96
2023-01-28T06:48:28.653Z,72.03
2023-01-28T06:49:28.601Z,74.60
2023-01-28T06:50:28.581Z,71.70
2023-01-28T06:51:28.599Z,74.12
2023-01-28T06:52:28.545Z,74.60
2023-01-28T06:53:28.551Z,72.19
2023-01-28T06:54:28.508Z,75.09
2023-01-28T06:55:28.489Z,73.48
2023-01-28T06:56:28.470Z,74.12
2023-01-28T06:57:28.453Z,71.87
2023-01-28T06:58:28.463Z,72.19
2023-01-28T06:59:28.418Z,73.15
2023-01-28T07:00:28.401Z,73.80
2023-01-28T07:01:28.447Z,71.54
2023-01-28T07:02:28.362Z,73.15
2023-01-28T07:03:28.369Z,71.54
2023-01-28T07:04:28.319Z,73.32
2023-01-28T07:05:28.310Z,73.15
2023-01-28T07:06:28.285Z,70.74
2023-01-28T07:07:28.266Z,74.60
2023-01-28T07:08:28.266Z,76.54
2023-01-28T07:09:28.226Z,72.03
2023-01-28T07:10:28.201Z,73.32
2023-01-28T07:11:28.185Z,70.42
2023-01-28T07:12:28.168Z,73.48
2023-01-28T07:13:28.175Z,73.15
2023-01-28T07:14:28.841Z,72.83
2023-01-28T07:15:28.114Z,71.22
2023-01-28T07:16:28.085Z,76.38
2023-01-28T07:17:28.143Z,72.51
2023-01-28T07:18:28.459Z,71.54
2023-01-28T07:19:28.028Z,72.67
2023-01-28T07:20:28.024Z,75.57
2023-01-28T07:21:27.993Z,71.38
2023-01-28T07:22:27.970Z,69.93
2023-01-28T07:23:29.150Z,74.77
2023-01-28T07:24:28.968Z,72.83
2023-01-28T07:25:27.936Z,73.64
2023-01-28T07:26:27.891Z,70.74
2023-01-28T07:27:27.885Z,72.99
2023-01-28T07:28:27.880Z,72.83
2023-01-28T07:29:27.833Z,68.96
2023-01-28T07:30:27.818Z,70.74
2023-01-28T07:31:28.933Z,71.22
2023-01-28T07:32:27.780Z,75.89
2023-01-28T07:33:27.792Z,75.57
2023-01-28T07:34:27.744Z,73.15
2023-01-28T07:35:27.738Z,74.93
2023-01-28T07:36:27.701Z,73.15
2023-01-28T07:37:27.689Z,73.32
2023-01-28T07:38:27.685Z,75.09
2023-01-28T07:39:27.641Z,70.09
2023-01-28T07:40:27.616Z,72.99
2023-01-28T07:41:27.605Z,74.77
2023-01-28T07:42:27.581Z,75.41
2023-01-28T07:43:27.593Z,73.96
2023-01-28T07:44:28.435Z,73.64
2023-01-28T07:45:27.522Z,73.32
2023-01-28T07:46:27.505Z,73.15
2023-01-28T07:47:28.368Z,72.03
2023-01-28T07:48:27.492Z,74.44
2023-01-28T07:49:27.443Z,75.09
2023-01-28T07:50:27.422Z,73.80
2023-01-28T07:51:27.407Z,72.99
2023-01-28T07:52:27.392Z,73.32
2023-01-28T07:53:27.397Z,71.38
2023-01-28T07:54:27.379Z,73.15
2023-01-28T07:55:29.489Z,70.25
2023-01-28T07:56:28.319Z,71.70
2023-01-28T07:57:27.309Z,74.93
2023-01-28T07:58:27.304Z,72.83
2023-01-28T07:59:27.259Z,73.80
2023-01-28T08:00:27.355Z,71.22
2023-01-28T08:01:27.257Z,73.15
2023-01-28T08:02:27.823Z,74.77
2023-01-28T08:03:27.215Z,73.15
2023-01-28T08:04:27.254Z,70.42
2023-01-28T08:05:27.455Z,71.87
2023-01-28T08:06:27.127Z,71.22
2023-01-28T08:07:27.106Z,70.58
2023-01-28T08:08:27.123Z,72.83
2023-01-28T08:09:27.073Z,74.93
2023-01-28T08:10:27.088Z,74.28
2023-01-28T08:11:27.037Z,72.67
2023-01-28T08:12:27.020Z,73.15
2023-01-28T08:13:27.036Z,72.19
2023-01-28T08:14:26.981Z,72.19
2023-01-28T08:15:26.987Z,74.28
2023-01-28T08:16:26.944Z,72.03
2023-01-28T08:17:26.951Z,73.80
2023-01-28T08:18:26.930Z,74.44
2023-01-28T08:19:26.897Z,72.51
2023-01-28T08:20:26.868Z,72.83
2023-01-28T08:21:26.847Z,71.87
2023-01-28T08:22:26.839Z,72.03
2023-01-28T08:23:26.897Z,72.35
2023-01-28T08:24:26.870Z,72.35
2023-01-28T08:25:26.776Z,71.87
2023-01-28T08:26:27.320Z,73.32
2023-01-28T08:27:26.816Z,71.22
2023-01-28T08:28:26.763Z,74.60
2023-01-28T08:29:26.710Z,72.83
2023-01-28T08:30:26.803Z,73.80
2023-01-28T08:31:26.691Z,74.28
2023-01-28T08:32:26.663Z,75.57
2023-01-28T08:33:26.658Z,73.15
2023-01-28T08:34:26.613Z,72.19
2023-01-28T08:35:26.598Z,74.28
2023-01-28T08:36:26.575Z,74.60
2023-01-28T08:37:26.553Z,73.96
2023-01-28T08:38:26.574Z,74.77
2023-01-28T08:39:26.528Z,73.15
2023-01-28T08:40:26.507Z,73.32
2023-01-28T08:41:26.486Z,69.77
2023-01-28T08:42:26.476Z,71.87
2023-01-28T08:43:26.472Z,73.15
2023-01-28T08:44:26.426Z,74.28
2023-01-28T08:45:27.919Z,72.83
2023-01-28T08:46:27.441Z,74.77
2023-01-28T08:47:26.376Z,72.83
2023-01-28T08:48:26.360Z,71.54
2023-01-28T08:49:26.365Z,72.51
2023-01-28T08:50:26.315Z,74.44
2023-01-28T08:51:26.298Z,73.15
2023-01-28T08:52:26.285Z,71.06
2023-01-28T08:53:26.263Z,73.80
2023-01-28T08:54:26.276Z,73.15
2023-01-28T08:55:26.257Z,72.51
2023-01-28T08:56:26.209Z,74.93
2023-01-28T08:57:26.195Z,73.48
2023-01-28T08:58:26.175Z,71.22
2023-01-28T08:59:26.185Z,73.15
2023-01-28T09:00:26.158Z,73.64
2023-01-28T09:01:26.192Z,72.51
2023-01-28T09:02:31.475Z,72.19
2023-01-28T09:03:28.117Z,75.09
2023-01-28T09:04:26.087Z,73.80
2023-01-28T09:05:26.049Z,72.83
2023-01-28T09:06:26.021Z,72.03
2023-01-28T09:07:26.029Z,74.12
2023-01-28T09:08:25.988Z,71.22
2023-01-28T09:09:26.006Z,72.19
2023-01-28T09:10:25.957Z,70.74
2023-01-28T09:11:25.948Z,72.51
2023-01-28T09:12:26.919Z,73.80
2023-01-28T09:13:25.928Z,72.51
2023-01-28T09:14:25.871Z,72.51
2023-01-28T09:15:26.861Z,72.51
2023-01-28T09:16:25.926Z,70.74
2023-01-28T09:17:25.825Z,72.51
2023-01-28T09:18:25.838Z,73.80
2023-01-28T09:19:25.815Z,73.64
2023-01-28T09:20:25.776Z,71.38
2023-01-28T09:21:25.767Z,72.99
2023-01-28T09:22:25.739Z,73.48
2023-01-28T09:23:25.719Z,73.96
2023-01-28T09:24:25.766Z,72.67
2023-01-28T09:25:25.677Z,70.58
2023-01-28T09:26:26.408Z,72.67
2023-01-28T09:27:25.642Z,70.09
2023-01-28T09:28:25.629Z,74.28
2023-01-28T09:29:25.628Z,72.99
2023-01-28T09:30:25.626Z,72.03
2023-01-28T09:31:25.621Z,71.70
2023-01-28T09:32:25.549Z,71.70
2023-01-28T09:33:25.534Z,70.09
2023-01-28T09:34:25.537Z,70.09
2023-01-28T09:35:25.494Z,70.58
2023-01-28T09:36:25.479Z,70.09
2023-01-28T09:37:25.462Z,72.67
2023-01-28T09:38:25.433Z,70.58
2023-01-28T09:39:25.443Z,72.03
2023-01-28T09:40:25.401Z,72.19
2023-01-28T09:41:25.387Z,70.25
2023-01-28T09:42:25.356Z,72.03
2023-01-28T09:43:25.337Z,69.45
2023-01-28T09:44:25.345Z,70.42
2023-01-28T09:45:25.311Z,74.60
2023-01-28T09:46:25.301Z,72.99
2023-01-28T09:47:26.268Z,73.15
2023-01-28T09:48:25.244Z,71.22
2023-01-28T09:49:25.266Z,71.22
2023-01-28T09:50:25.223Z,73.48
2023-01-28T09:51:25.182Z,75.57
2023-01-28T09:52:25.168Z,72.03
2023-01-28T09:53:25.145Z,71.38
2023-01-28T09:54:25.161Z,72.35
2023-01-28T09:55:25.135Z,70.42
2023-01-28T09:56:25.095Z,72.19
2023-01-28T09:57:25.084Z,70.58
2023-01-28T09:58:25.057Z,72.99
2023-01-28T09:59:25.090Z,74.28
2023-01-28T10:00:25.040Z,74.44
2023-01-28T10:01:25.895Z,74.28
2023-01-28T10:02:25.988Z,69.45
2023-01-28T10:03:25.004Z,71.38
2023-01-28T10:04:24.974Z,71.70
2023-01-28T10:05:24.929Z,73.32
2023-01-28T10:06:24.914Z,73.48
2023-01-28T10:07:24.889Z,73.15
2023-01-28T10:08:24.868Z,70.09
2023-01-28T10:09:24.881Z,71.22
2023-01-28T10:10:24.830Z,70.58
2023-01-28T10:11:24.815Z,72.03
2023-01-28T10:12:24.807Z,70.42
2023-01-28T10:13:24.783Z,71.70
2023-01-28T10:14:24.790Z,72.99
2023-01-28T10:15:24.744Z,73.80
2023-01-28T10:16:24.730Z,72.67
2023-01-28T10:17:24.719Z,72.67
2023-01-28T10:18:24.693Z,72.19
2023-01-28T10:19:24.704Z,73.48
2023-01-28T10:20:24.652Z,75.89
2023-01-28T10:21:24.638Z,75.25
2023-01-28T10:22:24.618Z,74.60
2023-01-28T10:23:24.608Z,73.64
2023-01-28T10:24:26.182Z,70.25
2023-01-28T10:25:25.565Z,74.12
2023-01-28T10:26:24.551Z,74.44
2023-01-28T10:27:24.524Z,75.09
2023-01-28T10:28:24.513Z,73.32
2023-01-28T10:29:24.522Z,74.12
2023-01-28T10:30:24.472Z,75.57
2023-01-28T10:31:24.522Z,72.19
2023-01-28T10:32:24.437Z,74.44
2023-01-28T10:33:24.418Z,71.06
2023-01-28T10:34:24.437Z,72.19
2023-01-28T10:35:24.383Z,71.54
2023-01-28T10:36:24.368Z,71.22
2023-01-28T10:37:24.347Z,72.51
2023-01-28T10:38:24.329Z,73.48
2023-01-28T10:39:24.338Z,71.87
2023-01-28T10:40:24.291Z,72.83
2023-01-28T10:41:24.273Z,72.67
2023-01-28T10:42:24.252Z,74.60
2023-01-28T10:43:24.236Z,72.51
2023-01-28T10:44:24.244Z,71.06
2023-01-28T10:45:24.207Z,68.00
2023-01-28T10:46:24.224Z,73.15
2023-01-28T10:47:24.164Z,71.70
2023-01-28T10:48:24.144Z,72.83
2023-01-28T10:49:24.774Z,73.48
2023-01-28T10:50:24.109Z,73.48
2023-01-28T10:51:24.092Z,71.22
2023-01-28T10:52:24.071Z,69.61
2023-01-28T10:53:25.670Z,71.22
2023-01-28T10:54:25.069Z,70.09
2023-01-28T10:55:24.018Z,70.42
2023-01-28T10:56:24.001Z,70.74
2023-01-28T10:57:23.981Z,70.42
2023-01-28T10:58:23.975Z,72.19
2023-01-28T10:59:23.946Z,71.70
2023-01-28T11:00:23.963Z,72.03
2023-01-28T11:01:23.964Z,71.54
2023-01-28T11:02:23.986Z,71.06
2023-01-28T11:03:23.870Z,73.15
2023-01-28T11:04:23.881Z,72.03
2023-01-28T11:05:23.834Z,73.64
2023-01-28T11:06:23.812Z,71.87
2023-01-28T11:07:23.795Z,72.35
2023-01-28T11:08:23.779Z,71.87
2023-01-28T11:09:23.758Z,72.83
2023-01-28T11:10:23.768Z,72.19
2023-01-28T11:11:23.725Z,74.44
2023-01-28T11:12:23.714Z,71.22
2023-01-28T11:13:23.715Z,68.96
2023-01-28T11:14:23.697Z,71.22
2023-01-28T11:15:23.641Z,70.74
2023-01-28T11:16:24.633Z,70.58
2023-01-28T11:17:23.688Z,71.87
2023-01-28T11:18:23.594Z,71.70
2023-01-28T11:20:23.581Z,72.19
2023-01-28T11:21:23.535Z,72.19
2023-01-28T11:22:23.519Z,71.38
2023-01-28T11:23:23.516Z,69.61
2023-01-28T11:24:23.539Z,70.09
2023-01-28T11:25:23.463Z,72.83
2023-01-28T11:26:23.443Z,71.38
2023-01-28T11:27:23.422Z,73.64
2023-01-28T11:28:24.405Z,70.25
2023-01-28T11:29:23.388Z,70.58
2023-01-28T11:30:23.400Z,73.48
2023-01-28T11:31:23.400Z,71.22
2023-01-28T11:32:23.331Z,74.12
2023-01-28T11:33:23.314Z,72.19
2023-01-28T11:34:23.316Z,73.64
2023-01-28T11:35:23.274Z,72.51
2023-01-28T11:36:23.259Z,72.99
2023-01-28T11:37:23.231Z,71.54
2023-01-28T11:38:23.218Z,73.32
2023-01-28T11:39:23.199Z,70.74
2023-01-28T11:40:23.548Z,74.28
2023-01-28T11:41:23.761Z,72.35
2023-01-28T11:42:23.171Z,72.19
2023-01-28T11:43:23.147Z,69.13
2023-01-28T11:44:23.126Z,72.51
2023-01-28T11:45:23.116Z,73.15
2023-01-28T11:46:23.081Z,70.74
2023-01-28T11:47:23.060Z,71.87
2023-01-28T11:48:23.037Z,72.67
2023-01-28T11:49:23.018Z,72.03
2023-01-28T11:50:23.026Z,69.77
2023-01-28T11:51:22.978Z,69.93
2023-01-28T11:52:22.970Z,69.13
2023-01-28T11:53:22.941Z,73.64
2023-01-28T11:54:22.926Z,73.64
2023-01-28T11:55:22.935Z,71.70
2023-01-28T11:56:22.885Z,72.83
2023-01-28T11:57:22.867Z,70.42
2023-01-28T11:58:22.849Z,69.45
2023-01-28T11:59:22.827Z,68.32
2023-01-28T12:00:22.829Z,73.80
2023-01-28T12:01:23.800Z,72.19
2023-01-28T12:02:22.799Z,71.54
2023-01-28T12:03:22.758Z,72.67
2023-01-28T12:04:22.823Z,72.35
2023-01-28T12:05:22.750Z,74.28
2023-01-28T12:06:22.711Z,73.32
2023-01-28T12:07:22.688Z,73.80
2023-01-28T12:08:22.673Z,71.87
2023-01-28T12:09:22.667Z,69.29
2023-01-28T12:10:22.663Z,68.96
2023-01-28T12:11:22.621Z,71.38
2023-01-28T12:12:22.601Z,69.93
2023-01-28T12:13:22.582Z,75.25
2023-01-28T12:14:22.565Z,74.12
2023-01-28T12:15:22.568Z,73.80
2023-01-28T12:16:22.585Z,70.74
2023-01-28T12:17:23.786Z,71.87
2023-01-28T12:18:22.489Z,70.58
2023-01-28T12:19:22.469Z,74.93
2023-01-28T12:20:22.476Z,70.74
2023-01-28T12:21:22.428Z,72.51
2023-01-28T12:22:22.413Z,72.19
2023-01-28T12:23:22.401Z,71.06
2023-01-28T12:24:22.388Z,71.70
2023-01-28T12:25:22.393Z,70.09
2023-01-28T12:26:22.337Z,71.70
2023-01-28T12:27:22.320Z,74.44
2023-01-28T12:28:22.302Z,71.54
2023-01-28T12:29:22.281Z,71.70
2023-01-28T12:30:22.301Z,72.35
2023-01-28T12:31:22.321Z,71.87
2023-01-28T12:32:22.225Z,72.19
2023-01-28T12:33:22.211Z,73.15
2023-01-28T12:34:22.196Z,74.28
2023-01-28T12:35:22.199Z,71.87
2023-01-28T12:36:22.171Z,73.32
2023-01-28T12:37:22.134Z,72.35
2023-01-28T12:38:22.117Z,68.48
2023-01-28T12:39:22.094Z,70.58
2023-01-28T12:40:22.105Z,72.35
2023-01-28T12:41:22.052Z,69.45
2023-01-28T12:42:22.041Z,72.51
2023-01-28T12:43:22.027Z,73.64
2023-01-28T12:44:21.999Z,69.13
2023-01-28T12:45:22.012Z,70.58
2023-01-28T12:46:21.967Z,70.25
2023-01-28T12:47:21.945Z,72.99
2023-01-28T12:48:21.933Z,71.87
2023-01-28T12:49:21.922Z,71.70
2023-01-28T12:50:21.914Z,73.48
2023-01-28T12:51:21.869Z,71.22
2023-01-28T12:52:24.173Z,71.38
2023-01-28T12:53:21.832Z,72.83